Airfield :
LOGIN :

Register | Disclaimer

   EN    FR    IT 

 










Legend :    VFR   Marginal VFR   IFR   Intensive IFR   Very Intensive IFR
Visi :
Ceiling :
>= 8 km
>= 3000ft
5 to 8 km
1000 to 3000 ft
1500m to 5 km
500 to 1000 ft
800 to 1500m
200 to 500 ft
< 800m
< 200 ft
Symbols :   Thunderstorms  Fog  Heavy snow  Heavy precipitations  Wind > 20 kt
SIGMETs :     Misc.  Thunderstorms  Icing  Turbulence  Mountain Waves  Volcanic Ashes






- Airport Elevation : 39 ft
- IATA code : CTA


LICC - Catania Fontanarossa

CURRENT METAR :
  • 232320Z 07017KT 9999 FEW010 BKN020 23/21 Q1017

EXPIRED METARs :
  • 232250Z 07018KT 9999 FEW010 BKN020 23/21 Q1017
  • 232220Z 07016KT 9999 FEW010 BKN020 23/21 Q1017
  • 232150Z 07017KT 9999 FEW010 BKN020 23/21 Q1018
  • 232120Z 07015KT 9999 DZ FEW010 BKN020 22/21 Q1018
  • 232050Z 07014KT 9999 FEW010 BKN020 22/21 Q1018

TAF TAF LICC
Valid from the 24 at 00:00 until the 25 at 00:00 UTC


232300Z 2400/2424 06015G25KT 9999 SCT040
TEMPO 2404/2418 TSRA
BECMG 2418/2420 07014KT
TEMPO 2421/2424 TSRA



MET'MAP, your aeronautical weather chart ! - Copyright ORBIFLY December 2007 - Disclaimer

ORBIFLY MET'MAP TEAM :

Programming & Development : Alexandra Zaïnal
Concept & original design : Baudouin d'Aumeries
Assistance for programming : Marc-Olivier Méhu
Technical & hardware support : Manuel Goepfert

Contact : metmap@orbifly.com




SOURCES & CREDITS :

   NOAA